Tiempo atmosférico en la estación meteorológica de Cillórigo de Liébana, Tama, Cantabria (250 m.)



Fecha
DESCASC
Temp. máxima en grados centígrados (hora)
DESCASC
Temp. mínima en grados centígrados (hora)
DESCASC
Temp. media en grados centígrados
DESCASC
Racha de viento máxima en m/sg (hora)
DESCASC
Velocidad máxima media en intervalos de 10 minutos(hora)
DESCASC
Precipitaciones diarias en mm
DESCASC
Precipitaciones de 00:00 a 06:00 en mm
DESCASC
Precipitaciones de 06:00 a 12:00 en mm
DESCASC
Precipitaciones de 12:00 a 18:00 en mm
DESCASC
Precipitaciones de 18:00 a 24:00 en mm
DESCASC
18-01-2018 14.2 (15:50) -1.6 (08:20) 6.3 8.06 (17:30) 3.61 (17:30) 0 0 0 0 0
17-01-2018 14 (13:20) 1.3 (23:59) 7.6 10.28 (05:50) 4.72 (06:00) 0 0 0 0 0
16-01-2018 20.9 (16:10) 3.1 (06:00) 12 8.06 (14:40) 3.89 (14:50) 0 0 0 0 0
15-01-2018 10.7 (16:50) -0.5 (09:20) 5.1 4.44 (22:50) 1.94 (22:50) 0 0 0 0 0
14-01-2018 10.4 (15:50) 1.2 (00:00) 5.8 5.56 (16:00) 2.5 (16:00) 0 0 0 0 0
13-01-2018 7.3 (15:50) 2.1 (00:00) 4.7 4.17 (06:50) 1.39 (05:30) 3.6 0 1.4 1.8 0.4
12-01-2018 9.1 (15:50) -0.2 (00:00) 4.5 3.89 (00:20) 2.5 (00:20) 0 0 0 0 0
11-01-2018 10.4 (19:00) 1.8 (00:00) 6.1 7.5 (19:00) 3.61 (19:00) 5.2 0.8 4 0 0.4
10-01-2018 13.5 (16:10) -1 (-00:0) 6.3 8.33 (15:40) 4.44 (15:40) 0.2 0 0 0.2 0
09-01-2018 10.4 (12:50) -0.3 (00:00) 5 7.5 (15:40) 3.89 (15:20) 0.2 0 0 0.2 0
08-01-2018 10.6 (15:50) 0.3 (00:00) 5.5 3.33 (17:00) 2.22 (16:20) 0 0 0 0 0
07-01-2018 6.5 (15:30) 2.2 (00:00) 4.4 10.28 (02:20) 4.72 (01:40) 27.4 16.2 10.2 1 0
06-01-2018 6.3 (15:50) 3.1 (00:00) 4.7 7.5 (18:10) 3.33 (19:20) 13.2 0.2 0 0.2 12.8
05-01-2018 16 (01:40) 6.1 (00:00) 11 13.61 (02:20) 7.22 (02:10) 5.2 0 1.4 1.8 2
04-01-2018 15.7 (14:50) 5.4 (08:50) 10.5 4.72 (22:40) 3.06 (22:30) 0.2 0 0.2 0 0
03-01-2018 18.1 (14:50) 6.5 (00:00) 12.3 4.72 (02:30) 2.5 (16:00) 0 0 0 0 0
02-01-2018 16.4 (15:50) 6.7 (00:00) 11.5 4.72 (07:20) 2.22 (06:00) 0 0 0 0 0
01-01-2018 17.3 (14:10) -0.4 (00:00) 8.4 14.17 (11:10) 6.39 (13:30) 1.4 0 0 0.6 0.8
31-12-2017 16.2 (13:00) 2.2 (00:00) 9.2 19.44 (17:50) 8.06 (12:30) 4 0 0 4 0
30-12-2017 16.8 (16:00) 4.1 (00:00) 10.4 7.5 (23:50) 4.72 (23:40) 0 0 0 0 0
29-12-2017 16 (14:30) 3.1 (00:00) 9.5 5.83 (09:20) 2.78 (09:20) 7 0.6 6.4 0 0
28-12-2017 15.6 (15:00) 4.5 (00:00) 10.1 19.17 (18:20) 9.17 (18:20) 8.6 0.2 8.4 0 0
27-12-2017 9.9 (09:30) 5.1 (00:00) 7.5 16.39 (08:10) 6.11 (00:10) 17.8 6.2 6.4 4.4 0.8
26-12-2017 12.3 (15:10) 1.1 (00:00) 6.7 13.61 (16:00) 7.5 (16:30) 4.8 0 0 0.4 4.4
25-12-2017 14.7 (13:10) -1.2 (-00:0) 6.7 12.22 (13:30) 5.83 (13:30) 0.6 0 0 0 0.6
24-12-2017 11.2 (14:50) -0.6 (-00:0) 5.3 3.89 (17:50) 1.94 (17:50) 0 0 0 0 0

Gráficas

Temp. máximas Temp. mínimas Temp. medias Precipitaciones Rachas de viento máximas Velocidades máximas media en intervalos de 10 minutos

Datos horarios

Fecha y hora oficial Temperatura (ºC) Velocidad del viento (km/h) Dirección del viento Racha (km/h) Dirección de racha Precipitación (mm) Presión (hPa) Tendencia (hPa) Humedad (%)
2018-01-22 23:00:00 6.5 0 Calma 3 Sur 0 -- -- 92
2018-01-22 22:00:00 7.4 0 Calma 3 Este 0 -- -- 90
2018-01-22 21:00:00 8.4 0 Calma 15 Sur 0 -- -- 87
2018-01-22 20:00:00 10.8 11 Sudeste 20 Sudeste 0 -- -- 80
2018-01-22 19:00:00 12.9 9 Sudeste 27 Norte 0 -- -- 72
2018-01-22 18:00:00 16.5 10 Norte 26 Nordeste 0 -- -- 62
2018-01-22 17:00:00 15.1 7 Sudoeste 14 Sudoeste 0 -- -- 67
2018-01-22 16:00:00 16.9 5 Sudoeste 9 Oeste 0 -- -- 63
2018-01-22 15:00:00 15.7 3 Oeste 7 Noroeste 0 -- -- 61
2018-01-22 14:00:00 14.4 0 Calma 6 Sur 0 -- -- 66
2018-01-22 13:00:00 10.8 0 Calma 5 Oeste 0 -- -- 78
2018-01-22 12:00:00 7.5 0 Calma 7 Noroeste 0 -- -- 89
2018-01-22 11:00:00 4.6 0 Calma 8 Sur 0 -- -- 99
2018-01-22 10:00:00 3.4 4 Sudeste 8 Sur 0 -- -- 98
2018-01-22 09:00:00 3.3 2 Sur 9 Sur 0 -- -- 99
2018-01-22 08:00:00 3.3 5 Sur 10 Sur 0 -- -- 98
2018-01-22 07:00:00 3.1 5 Sudeste 10 Sur 0 -- -- 99
2018-01-22 06:00:00 2.2 0 Calma 4 Noroeste 0 -- -- 99
2018-01-22 05:00:00 2 0 Calma 5 Sudeste 0 -- -- 98
2018-01-22 04:00:00 2.4 0 Calma 3 Sur 0 -- -- 97
2018-01-22 03:00:00 3 0 Calma 3 Oeste 0 -- -- 97
2018-01-22 02:00:00 3.7 0 Calma 4 Oeste 0 -- -- 96
2018-01-22 01:00:00 4.2 0 Calma 2 Sudoeste 0 -- -- 95
2018-01-22 00:00:00 5 0 Calma 3 Oeste 0 -- -- 94
2018-01-21 23:00:00 5.9 0 Calma 2 Oeste 0 -- -- 92
2018-01-21 22:00:00 6.9 0 Calma 3 Sudeste 0 -- -- 90
2018-01-21 21:00:00 8.2 0 Calma 5 Sudoeste 0 -- -- 86
2018-01-21 20:00:00 10 0 Calma 4 Sudoeste 0 -- -- 82
2018-01-21 19:00:00 12.9 0 Calma 12 Sur 0 -- -- 72
2018-01-21 18:00:00 16.3 3 Sudoeste 30 Norte 0 -- -- 60
2018-01-21 17:00:00 18.3 17 Norte 32 Norte 0 -- -- 53
2018-01-21 16:00:00 19.5 16 Norte 29 Norte 0 -- -- 50
2018-01-21 15:00:00 19.3 14 Norte 26 Norte 0 -- -- 49
2018-01-21 14:00:00 19.1 9 Norte 29 Norte 0 -- -- 50
2018-01-21 13:00:00 18.5 3 Sudoeste 9 Oeste 0 -- -- 56
2018-01-21 12:00:00 15.3 0 Calma 3 Sudeste 0 -- -- 74
2018-01-21 11:00:00 11.5 0 Calma 5 Oeste 0 -- -- 90
2018-01-21 10:00:00 10.6 2 Sudeste 6 Nordeste 0 -- -- 91
2018-01-21 09:00:00 10.8 2 Sur 8 Sur 0 -- -- 90
2018-01-21 08:00:00 11.1 3 Este 12 Sudeste 0 -- -- 88
2018-01-21 07:00:00 11.3 0 Calma 11 Sudoeste 0 -- -- 86
2018-01-21 06:00:00 12.4 5 Sudeste 17 Sudeste 0 -- -- 80
2018-01-21 05:00:00 12.3 5 Sur 15 Sudeste 0 -- -- 81
2018-01-21 04:00:00 13 9 Sur 29 Este 0 -- -- 79
2018-01-21 03:00:00 12.7 10 Sudeste 22 Sudeste 0 -- -- 79
2018-01-21 02:00:00 12.9 11 Sudeste 20 Sudeste 0 -- -- 81
2018-01-21 01:00:00 12.7 7 Sur 15 Sudeste 0 -- -- 81
2018-01-21 00:00:00 14.3 8 Sudeste 21 Sur 0 -- -- 71
2018-01-20 23:00:00 15.9 5 Sudeste 41 Nordeste 0 -- -- 62
2018-01-20 22:00:00 17.6 10 Nordeste 30 Sudeste 0 -- -- 54
2018-01-20 21:00:00 14.7 12 Sudeste 18 Sudeste 0 -- -- 67
2018-01-20 20:00:00 13.5 7 Este 17 Sudeste 0 -- -- 75
2018-01-20 19:00:00 14.3 9 Sur 16 Sudeste 0 -- -- 71
2018-01-20 18:00:00 14.6 5 Sur 16 Sudoeste 0 -- -- 72
2018-01-20 17:00:00 15.8 3 Sudeste 18 Norte 0 -- -- 66
2018-01-20 16:00:00 17.9 6 Este 24 Noroeste 0 -- -- 55
2018-01-20 15:00:00 13.9 6 Nordeste 15 Este 0 -- -- 67
2018-01-20 14:00:00 12.6 4 Sudoeste 17 Este 0 -- -- 67
2018-01-20 13:00:00 10.5 6 Sur 27 Sudeste 0 -- -- 65
2018-01-20 12:00:00 8.5 9 Sur 17 Sudeste 0 -- -- 73
2018-01-20 11:00:00 6.5 8 Sur 18 Sudeste 0 -- -- 80
2018-01-20 10:00:00 2.6 4 Nordeste 15 Este 0 -- -- 95
2018-01-20 09:00:00 2.5 5 Sur 15 Noroeste 0 -- -- 95
2018-01-20 08:00:00 2.6 5 Sudeste 9 Nordeste 0 -- -- 95
2018-01-20 07:00:00 3 2 Nordeste 18 Sudeste 0 -- -- 93
2018-01-20 06:00:00 3.2 2 Oeste 13 Sudeste 0 -- -- 93
2018-01-20 05:00:00 2.6 4 Norte 11 Este 0 -- -- 96
2018-01-20 04:00:00 2.2 2 Sur 9 Sudeste 0 -- -- 96
2018-01-20 03:00:00 1.7 0 Calma 7 Este 0 -- -- 97
2018-01-20 02:00:00 1 0 Calma 6 Este 0 -- -- 96
2018-01-20 01:00:00 1.3 0 Calma 4 Este 0 -- -- 95
2018-01-20 00:00:00 1.9 0 Calma 13 Sudeste 0 -- -- 94
2018-01-19 23:00:00 2.8 2 Sudeste 8 Sur 0 -- -- 92
2018-01-19 22:00:00 3.4 0 Calma 6 Sur 0 -- -- 90
2018-01-19 21:00:00 4.3 0 Calma 8 Sudeste 0 -- -- 87
2018-01-19 20:00:00 6.4 3 Sudoeste 14 Sudeste 0 -- -- 81
2018-01-19 19:00:00 8.6 6 Sudeste 15 Sudeste 0 -- -- 73
2018-01-19 18:00:00 12.3 8 Noroeste 26 Nordeste 0 -- -- 54
2018-01-19 17:00:00 13.1 10 Norte 24 Norte 0 -- -- 51
2018-01-19 16:00:00 14 10 Norte 28 Nordeste 0 -- -- 50
2018-01-19 15:00:00 13.5 10 Norte 28 Norte 0 -- -- 55
2018-01-19 14:00:00 13.2 10 Norte 23 Noroeste 0 -- -- 63
2018-01-19 13:00:00 9.2 3 Oeste 12 Noroeste 0 -- -- 84
2018-01-19 12:00:00 6.3 3 Este 9 Oeste 0.2 -- -- 95
2018-01-19 11:00:00 3 4 Este 8 Nordeste 0 -- -- 97
2018-01-19 10:00:00 1.7 5 Sur 15 Sudeste 0 -- -- 99
2018-01-19 09:00:00 0.7 3 Sudoeste 9 Sudeste 0 -- -- 98
2018-01-19 08:00:00 0.5 2 Sur 9 Oeste 0 -- -- 98
2018-01-19 07:00:00 0.6 4 Sudeste 6 Este 0 -- -- 98
2018-01-19 06:00:00 1.2 3 Sur 13 Sur 0 -- -- 98
2018-01-19 05:00:00 1.2 6 Sudeste 11 Sudeste 0 -- -- 99
2018-01-19 04:00:00 0.6 2 Norte 9 Sudeste 0 -- -- 97
2018-01-19 03:00:00 0.7 0 Calma 5 Sudoeste 0 -- -- 96
2018-01-19 02:00:00 1.5 0 Calma 4 Este 0 -- -- 95
2018-01-19 01:00:00 2.5 0 Calma 7 Sudoeste 0 -- -- 95
2018-01-19 00:00:00 3.6 3 Sur 10 Sudeste 0 -- -- 93
2018-01-18 23:00:00 4.3 2 Sur 5 Sur 0 -- -- 94
2018-01-18 22:00:00 4 3 Sur 7 Sudeste 0 -- -- 92
2018-01-18 21:00:00 5 2 Sudoeste 15 Sudeste 0 -- -- 89
2018-01-18 20:00:00 6.8 10 Sudeste 16 Sudeste 0 -- -- 86
2018-01-18 19:00:00 8.7 4 Sur 24 Norte 0 -- -- 80
2018-01-18 18:00:00 11 11 Noroeste 29 Norte 0 -- -- 73
2018-01-18 17:00:00 12.6 8 Norte 23 Norte 0 -- -- 67
2018-01-18 16:00:00 14.2 3 Sur 10 Norte 0 -- -- 59
2018-01-18 15:00:00 12.5 8 Norte 16 Norte 0 -- -- 65
2018-01-18 14:00:00 10.3 0 Calma 6 Oeste 0 -- -- 70
2018-01-18 13:00:00 7.8 0 Calma 6 Noroeste 0 -- -- 78
2018-01-18 12:00:00 4.7 0 Calma 5 Sudeste 0 -- -- 85
2018-01-18 11:00:00 1.3 2 Sudoeste 5 Este 0 -- -- 97
2018-01-18 10:00:00 -1.4 0 Calma 5 Sudoeste 0 -- -- 98
2018-01-18 09:00:00 -1.6 0 Calma 4 Oeste 0 -- -- 98
2018-01-18 08:00:00 -1.5 3 Nordeste 5 Oeste 0 -- -- 98
2018-01-18 07:00:00 -1.3 4 Sudeste 6 Sudeste 0 -- -- 98
2018-01-18 06:00:00 -1.3 2 Oeste 5 Oeste 0 -- -- 97
2018-01-18 05:00:00 -1 0 Calma 3 Este 0 -- -- 97
2018-01-18 04:00:00 -0.6 0 Calma 4 Oeste 0 -- -- 97
2018-01-18 03:00:00 -0.3 0 Calma 4 Sur 0 -- -- 96
2018-01-18 02:00:00 0.3 0 Calma 3 Oeste 0 -- -- 96
2018-01-18 01:00:00 0.8 0 Calma 2 Sudoeste 0 -- -- 95
2018-01-18 00:00:00 1.3 0 Calma 3 Sur 0 -- -- 94
2018-01-17 23:00:00 2.1 2 Sur 3 Noroeste 0 -- -- 93
2018-01-17 22:00:00 3 0 Calma 3 Sudoeste 0 -- -- 89
2018-01-17 21:00:00 4.4 0 Calma 8 Sudeste 0 -- -- 85
2018-01-17 20:00:00 6.5 7 Sudeste 14 Sudeste 0 -- -- 78
2018-01-17 19:00:00 8.1 6 Sudeste 16 Norte 0 -- -- 71
2018-01-17 18:00:00 10.8 8 Noroeste 24 Norte 0 -- -- 60
2018-01-17 17:00:00 12.1 10 Norte 26 Norte 0 -- -- 53
2018-01-17 16:00:00 12.9 14 Norte 30 Noroeste 0 -- -- 50
2018-01-17 15:00:00 13.6 15 Norte 25 Norte 0 -- -- 47
2018-01-17 14:00:00 14 6 Norte 17 Norte 0 -- -- 47
2018-01-17 13:00:00 13.7 4 Noroeste 21 Norte 0 -- -- 47
2018-01-17 12:00:00 12 12 Norte 32 Norte 0 -- -- 57
2018-01-17 11:00:00 10.2 6 Este 25 Sudoeste 0 -- -- 65
2018-01-17 10:00:00 7 14 Sur 30 Sudeste 0 -- -- 78
2018-01-17 09:00:00 6.8 9 Sur 25 Sudeste 0 -- -- 79
2018-01-17 08:00:00 7.8 8 Sur 29 Sudeste 0 -- -- 76
2018-01-17 07:00:00 8.9 12 Sudeste 31 Noroeste 0 -- -- 73
2018-01-17 06:00:00 12.1 17 Norte 37 Nordeste 0 -- -- 62
2018-01-17 05:00:00 8.6 11 Sudeste 22 Sur 0 -- -- 79
2018-01-17 04:00:00 6.6 5 Sudeste 19 Este 0 -- -- 88
2018-01-17 03:00:00 6.9 8 Sur 21 Sur 0 -- -- 86
2018-01-17 02:00:00 6.4 7 Sur 15 Sudeste 0 -- -- 91
2018-01-17 01:00:00 5.4 2 Noroeste 10 Este 0 -- -- 94
2018-01-17 00:00:00 6.3 4 Nordeste 10 Sudeste 0 -- -- 93
2018-01-16 23:00:00 7.5 5 Este 13 Sudeste 0 -- -- 88
2018-01-16 22:00:00 8.1 4 Sudoeste 15 Sudeste 0 -- -- 86
2018-01-16 21:00:00 9.7 3 Noroeste 19 Sudeste 0 -- -- 81
2018-01-16 20:00:00 11.4 5 Sur 18 Sur 0 -- -- 75
2018-01-16 19:00:00 11.3 5 Sudoeste 15 Norte 0 -- -- 79
2018-01-16 18:00:00 13.3 5 Sur 18 Sudoeste 0 -- -- 69
2018-01-16 17:00:00 16.5 5 Sudoeste 16 Noroeste 0 -- -- 58
2018-01-16 16:00:00 20.7 5 Oeste 27 Nordeste 0 -- -- 42
2018-01-16 15:00:00 20.1 9 Norte 29 Nordeste 0 -- -- 46
2018-01-16 14:00:00 17.1 3 Norte 12 Noroeste 0 -- -- 61
2018-01-16 13:00:00 14.7 5 Sur 12 Sudeste 0 -- -- 67
2018-01-16 12:00:00 11.4 4 Nordeste 17 Este 0 -- -- 77
2018-01-16 11:00:00 8.3 5 Norte 20 Noroeste 0 -- -- 85
2018-01-16 10:00:00 4.6 3 Oeste 20 Sudeste 0 -- -- 95
2018-01-16 09:00:00 4.2 3 Este 17 Este 0 -- -- 95
2018-01-16 08:00:00 4.4 7 Oeste 21 Sudeste 0 -- -- 96
2018-01-16 07:00:00 3.8 6 Este 13 Este 0 -- -- 98
2018-01-16 06:00:00 3.1 5 Este 10 Este 0 -- -- 96
2018-01-16 05:00:00 3.5 5 Nordeste 15 Sudeste 0 -- -- 96
2018-01-16 04:00:00 3.3 4 Norte 19 Noroeste 0 -- -- 95
2018-01-16 03:00:00 3.4 3 Sudeste 14 Este 0 -- -- 94
2018-01-16 02:00:00 4 2 Norte 13 Sudeste 0 -- -- 92
2018-01-16 01:00:00 5.1 3 Noroeste 10 Oeste 0 -- -- 89
2018-01-16 00:00:00 5.6 5 Este 15 Sudeste 0 -- -- 87
2018-01-15 23:00:00 5.5 5 Noroeste 16 Sudeste 0 -- -- 87
2018-01-15 22:00:00 5 5 Este 15 Sudeste 0 -- -- 91
2018-01-15 21:00:00 5.3 4 Sur 13 Sudeste 0 -- -- 90
2018-01-15 20:00:00 6.4 2 Norte 9 Sudeste 0 -- -- 87
2018-01-15 19:00:00 8.1 3 Sudeste 6 Oeste 0 -- -- 83
2018-01-15 18:00:00 10.1 0 Calma 5 Oeste 0 -- -- 79
2018-01-15 17:00:00 10.7 0 Calma 4 Oeste 0 -- -- 74
2018-01-15 16:00:00 10.4 0 Calma 5 Noroeste 0 -- -- 70
2018-01-15 15:00:00 9.8 0 Calma 5 Sudeste 0 -- -- 74
2018-01-15 14:00:00 7.8 0 Calma 6 Noroeste 0 -- -- 72
2018-01-15 13:00:00 5.9 0 Calma 4 Sudeste 0 -- -- 83
2018-01-15 12:00:00 3.6 2 Noroeste 5 Noroeste 0 -- -- 95
2018-01-15 11:00:00 1.2 0 Calma 4 Noroeste 0 -- -- 99
2018-01-15 10:00:00 0.1 0 Calma 3 Oeste 0 -- -- 99
2018-01-15 09:00:00 -0.4 0 Calma 4 Noroeste 0 -- -- 99
2018-01-15 08:00:00 -0.1 0 Calma 5 Sur 0 -- -- 99
2018-01-15 07:00:00 -0.1 0 Calma 3 Noroeste 0 -- -- 98
2018-01-15 06:00:00 0.2 2 Este 5 Oeste 0 -- -- 98
2018-01-15 05:00:00 0.3 0 Calma 3 Oeste 0 -- -- 97
2018-01-15 04:00:00 1.2 0 Calma 6 Sudeste 0 -- -- 96
2018-01-15 03:00:00 2.4 4 Sur 9 Sur 0 -- -- 95
2018-01-15 02:00:00 3.1 0 Calma 8 Sur 0 -- -- 93
2018-01-15 01:00:00 4.7 6 Sudeste 10 Sudeste 0 -- -- 90
2018-01-15 00:00:00 5 3 Sudeste 8 Sur 0 -- -- 92
2018-01-14 23:00:00 5.1 0 Calma 4 Sur 0 -- -- 93
2018-01-14 22:00:00 5.4 4 Sur 10 Sudeste 0 -- -- 90
2018-01-14 21:00:00 5.9 2 Sudoeste 11 Sudeste 0 -- -- 89
2018-01-14 20:00:00 6.9 7 Sudeste 12 Sudeste 0 -- -- 86
2018-01-14 19:00:00 7.3 3 Sudeste 8 Sur 0 -- -- 84
2018-01-14 18:00:00 8.4 7 Sur 17 Noroeste 0 -- -- 77
2018-01-14 17:00:00 10 7 Noroeste 18 Norte 0 -- -- 57
2018-01-14 16:00:00 10.4 9 Norte 20 Norte 0 -- -- 56
2018-01-14 15:00:00 9.2 0 Calma 5 Oeste 0 -- -- 68
2018-01-14 14:00:00 7.2 0 Calma 6 Oeste 0 -- -- 80
2018-01-14 13:00:00 4.4 4 Noroeste 7 Norte 0 -- -- 93
2018-01-14 12:00:00 2.6 2 Nordeste 6 Sur 0 -- -- 97
2018-01-14 11:00:00 1.6 2 Sudeste 8 Sudoeste 0 -- -- 98
2018-01-14 10:00:00 1.3 5 Sur 10 Sur 0 -- -- 97
2018-01-14 09:00:00 1.5 5 Sur 8 Sur 0 -- -- 97
2018-01-14 08:00:00 1.7 6 Sur 13 Sur 0 -- -- 97
2018-01-14 07:00:00 1.9 6 Sur 10 Sudeste 0 -- -- 97
2018-01-14 06:00:00 2.4 4 Sudeste 9 Sudeste 0 -- -- 97
2018-01-14 05:00:00 2.6 4 Sudeste 10 Sur 0 -- -- 97
2018-01-14 04:00:00 2.7 5 Sur 10 Sudeste 0 -- -- 97
2018-01-14 03:00:00 2.6 6 Sudeste 12 Sudeste 0 -- -- 97
2018-01-14 02:00:00 3 5 Sur 12 Sudeste 0 -- -- 97
2018-01-14 01:00:00 3.4 5 Sudeste 11 Sur 0 -- -- 99
2018-01-14 00:00:00 3.7 3 Sudeste 8 Sudeste 0 -- -- 99
2018-01-13 23:00:00 4.1 3 Este 9 Sudeste 0 -- -- 99
2018-01-13 22:00:00 4.6 3 Sudeste 8 Sur 0 -- -- 98
2018-01-13 21:00:00 4.9 0 Calma 3 Sudoeste 0 -- -- 98
2018-01-13 20:00:00 5.5 0 Calma 3 Noroeste 0.2 -- -- 98
2018-01-13 19:00:00 5.8 0 Calma 3 Sudeste 0.2 -- -- 96
2018-01-13 18:00:00 6.3 0 Calma 7 Sudeste 0 -- -- 94
2018-01-13 17:00:00 6.9 3 Sudoeste 9 Sudoeste 0.6 -- -- 94
2018-01-13 16:00:00 7.3 0 Calma 3 Noroeste 0.8 -- -- 97
2018-01-13 15:00:00 7.2 0 Calma 2 Noroeste 0 -- -- 97
2018-01-13 14:00:00 6.7 0 Calma 4 Sur 0.2 -- -- 97
2018-01-13 13:00:00 6 0 Calma 4 Noroeste 0.2 -- -- 98
2018-01-13 12:00:00 5.4 0 Calma 3 Este 0.8 -- -- 97
2018-01-13 11:00:00 4.9 0 Calma 4 Noroeste 0.4 -- -- 96
2018-01-13 10:00:00 4.6 2 Nordeste 6 Oeste 0.2 -- -- 94
2018-01-13 09:00:00 4.5 2 Sur 8 Norte 0 -- -- 91
2018-01-13 08:00:00 3.9 2 Este 6 Sudoeste 0 -- -- 92
2018-01-13 07:00:00 3.6 0 Calma 15 Sudeste 0 -- -- 91
2018-01-13 06:00:00 3.1 2 Sudeste 13 Sudeste 0 -- -- 94
2018-01-13 05:00:00 2.6 4 Norte 7 Nordeste 0 -- -- 97
2018-01-13 04:00:00 2.4 3 Oeste 8 Oeste 0 -- -- 98
2018-01-13 03:00:00 2.1 2 Noroeste 6 Oeste 0 -- -- 98
2018-01-13 02:00:00 2.3 2 Norte 8 Sudeste 0 -- -- 98
2018-01-13 01:00:00 2.5 2 Noroeste 6 Oeste 0 -- -- 98
2018-01-13 00:00:00 2.8 0 Calma 4 Sudeste 0 -- -- 97
2018-01-12 23:00:00 3.4 0 Calma 4 Sudoeste 0 -- -- 97
2018-01-12 22:00:00 4 0 Calma 5 Oeste 0 -- -- 96
2018-01-12 21:00:00 4.6 0 Calma 5 Sudoeste 0 -- -- 94
2018-01-12 20:00:00 5.3 0 Calma 5 Sur 0 -- -- 93
2018-01-12 19:00:00 6.3 0 Calma 6 Sur 0 -- -- 90
2018-01-12 18:00:00 7.9 0 Calma 4 Oeste 0 -- -- 87
2018-01-12 17:00:00 8.7 0 Calma 5 Noroeste 0 -- -- 80
2018-01-12 16:00:00 9.1 3 Oeste 4 Oeste 0 -- -- 76
2018-01-12 15:00:00 8.7 0 Calma 3 Noroeste 0 -- -- 75
2018-01-12 14:00:00 7.2 0 Calma 4 Norte 0 -- -- 81
2018-01-12 13:00:00 6 0 Calma 4 Sudoeste 0 -- -- 85
2018-01-12 12:00:00 3.3 0 Calma 5 Noroeste 0 -- -- 98
2018-01-12 11:00:00 1.6 0 Calma 5 Este 0 -- -- 100
2018-01-12 10:00:00 0.4 4 Sudeste 6 Este 0 -- -- 99
2018-01-12 09:00:00 0 3 Sudeste 5 Sudeste 0 -- -- 99
2018-01-12 08:00:00 -0.1 0 Calma 4 Sudeste 0 -- -- 99
2018-01-12 07:00:00 0.2 3 Sur 5 Sur 0 -- -- 99
2018-01-12 06:00:00 0.3 0 Calma 5 Sur 0 -- -- 98
2018-01-12 05:00:00 0.4 2 Sudeste 3 Sur 0 -- -- 98
2018-01-12 04:00:00 0.7 0 Calma 3 Oeste 0 -- -- 97
2018-01-12 03:00:00 1.5 0 Calma 6 Sudeste 0 -- -- 97
2018-01-12 02:00:00 2.5 2 Sur 5 Sudoeste 0 -- -- 96
2018-01-12 01:00:00 3.7 0 Calma 14 Sur 0 -- -- 93
2018-01-12 00:00:00 5.3 12 Sur 17 Sur 0 -- -- 93
2018-01-11 23:00:00 6.5 6 Sur 12 Sudeste 0 -- -- 91
2018-01-11 22:00:00 6.7 6 Sudeste 14 Sudeste 0.2 -- -- 91
2018-01-11 21:00:00 7.1 4 Sur 10 Sudeste 0.2 -- -- 90
2018-01-11 20:00:00 8 2 Sur 23 Sur 0 -- -- 85
2018-01-11 19:00:00 10.4 13 Nordeste 27 Nordeste 0 -- -- 64
2018-01-11 18:00:00 8.6 4 Noroeste 18 Sur 0 -- -- 72
2018-01-11 17:00:00 8.9 4 Sur 15 Sudeste 0 -- -- 73
2018-01-11 16:00:00 9.1 5 Nordeste 16 Noroeste 0 -- -- 74
2018-01-11 15:00:00 8.6 4 Oeste 12 Noroeste 0 -- -- 78
2018-01-11 14:00:00 8.4 5 Norte 13 Norte 0 -- -- 77
2018-01-11 13:00:00 7.6 4 Nordeste 13 Sudeste 0 -- -- 83
2018-01-11 12:00:00 5.2 8 Nordeste 15 Este 0 -- -- 94
2018-01-11 11:00:00 4.6 5 Oeste 12 Sudeste 0 -- -- 95
2018-01-11 10:00:00 4.1 5 Noroeste 12 Sudeste 0.8 -- -- 95
2018-01-11 09:00:00 4.2 3 Norte 14 Nordeste 2 -- -- 95
2018-01-11 08:00:00 4.3 6 Sur 12 Este 0.4 -- -- 95
2018-01-11 07:00:00 4.2 3 Oeste 16 Sudeste 0.8 -- -- 95
2018-01-11 06:00:00 4.5 2 Noroeste 19 Nordeste 0.8 -- -- 91
2018-01-11 05:00:00 5 8 Norte 21 Norte 0 -- -- 81
2018-01-11 04:00:00 4.1 3 Sudeste 15 Este 0 -- -- 83
2018-01-11 03:00:00 3.4 2 Sudeste 14 Sur 0 -- -- 84
2018-01-11 02:00:00 2.5 4 Noroeste 17 Sudeste 0 -- -- 87
2018-01-11 01:00:00 2.2 5 Norte 10 Nordeste 0 -- -- 89
2018-01-11 00:00:00 1.8 2 Norte 10 Sudoeste 0 -- -- 89
2018-01-10 23:00:00 2.3 7 Sur 12 Este 0 -- -- 86
2018-01-10 22:00:00 3.7 3 Sur 12 Este 0 -- -- 78
2018-01-10 21:00:00 4.4 3 Oeste 9 Sudoeste 0 -- -- 79
2018-01-10 20:00:00 5.8 5 Noroeste 24 Sudeste 0 -- -- 78
2018-01-10 19:00:00 6.5 7 Sudeste 14 Este 0 -- -- 83
2018-01-10 18:00:00 8.1 3 Oeste 24 Nordeste 0.2 -- -- 77
2018-01-10 17:00:00 10.9 10 Norte 23 Norte 0 -- -- 61
2018-01-10 16:00:00 13.4 8 Sur 30 Sur 0 -- -- 53
2018-01-10 15:00:00 12.2 14 Sudeste 25 Sudeste 0 -- -- 56
2018-01-10 14:00:00 11.3 8 Sur 19 Sur 0 -- -- 55
2018-01-10 13:00:00 10.7 6 Oeste 23 Sur 0 -- -- 54
2018-01-10 12:00:00 7.6 11 Sudeste 17 Sudeste 0 -- -- 75
2018-01-10 11:00:00 1.9 3 Norte 7 Sudoeste 0 -- -- 100
2018-01-10 10:00:00 -0.8 0 Calma 6 Oeste 0 -- -- 99
2018-01-10 09:00:00 -0.9 0 Calma 4 Este 0 -- -- 99
2018-01-10 08:00:00 -0.6 0 Calma 4 Sudeste 0 -- -- 98
2018-01-10 07:00:00 0 0 Calma 6 Oeste 0 -- -- 98
2018-01-10 06:00:00 0.5 4 Noroeste 5 Sur 0 -- -- 97
2018-01-10 05:00:00 1.1 2 Sur 10 Sur 0 -- -- 98
2018-01-10 04:00:00 0.7 4 Norte 7 Sudeste 0 -- -- 98
2018-01-10 03:00:00 0.9 3 Sudeste 6 Este 0 -- -- 97
2018-01-10 02:00:00 1.5 0 Calma 5 Sur 0 -- -- 95
2018-01-10 01:00:00 2.5 2 Sur 4 Sudeste 0 -- -- 94
2018-01-10 00:00:00 3.1 3 Sur 8 Sudeste 0 -- -- 93
2018-01-09 23:00:00 3.3 4 Sur 10 Noroeste 0 -- -- 91
2018-01-09 22:00:00 4.3 3 Sudoeste 15 Sudeste 0 -- -- 87
2018-01-09 21:00:00 5.7 4 Sur 12 Sudeste 0 -- -- 82
2018-01-09 20:00:00 6.2 2 Sudeste 8 Sudoeste 0 -- -- 80
2018-01-09 19:00:00 7.5 2 Norte 14 Oeste 0 -- -- 74
2018-01-09 18:00:00 8.6 4 Sudoeste 22 Oeste 0 -- -- 70
2018-01-09 17:00:00 9.1 8 Oeste 26 Sudoeste 0 -- -- 71
2018-01-09 16:00:00 9.6 13 Sudoeste 27 Oeste 0 -- -- 64
2018-01-09 15:00:00 8.4 6 Sudoeste 15 Sur 0 -- -- 74
2018-01-09 14:00:00 9.2 5 Sur 16 Sudoeste 0.2 -- -- 71
2018-01-09 13:00:00 10.2 9 Sur 26 Sudoeste 0 -- -- 55
2018-01-09 12:00:00 9.2 8 Sudoeste 21 Sur 0 -- -- 58
2018-01-09 11:00:00 5.1 4 Sudeste 17 Sudeste 0 -- -- 86
2018-01-09 10:00:00 2.7 4 Sudeste 17 Sur 0 -- -- 100
2018-01-09 09:00:00 0.3 3 Norte 6 Oeste 0 -- -- 100
2018-01-09 08:00:00 -0.1 0 Calma 5 Noroeste 0 -- -- 100
2018-01-09 07:00:00 -0.3 0 Calma 3 Sur 0 -- -- 99
2018-01-09 06:00:00 -0.1 0 Calma 4 Oeste 0 -- -- 99
2018-01-09 05:00:00 0.1 2 Sudeste 4 Sudeste 0 -- -- 99
2018-01-09 04:00:00 0.1 0 Calma 4 Sur 0 -- -- 98
2018-01-09 03:00:00 0.6 0 Calma 4 Sur 0 -- -- 98
2018-01-09 02:00:00 1.4 0 Calma 5 Sudeste 0 -- -- 97
2018-01-09 01:00:00 2.2 0 Calma 4 Sudeste 0 -- -- 97
2018-01-09 00:00:00 3.1 0 Calma 6 Sudeste 0 -- -- 96
2018-01-08 23:00:00 3.5 2 Norte 6 Sudeste 0 -- -- 96
2018-01-08 22:00:00 4 0 Calma 4 Este 0 -- -- 96
2018-01-08 21:00:00 4 0 Calma 8 Sudeste 0 -- -- 95
2018-01-08 20:00:00 4.9 0 Calma 5 Sudeste 0 -- -- 92
2018-01-08 19:00:00 6.4 3 Sur 8 Sudeste 0 -- -- 91
2018-01-08 18:00:00 7.4 8 Sudeste 11 Sudeste 0 -- -- 84
2018-01-08 17:00:00 7.7 7 Sudoeste 12 Sudoeste 0 -- -- 85
2018-01-08 16:00:00 10.3 4 Oeste 6 Sudoeste 0 -- -- 75
2018-01-08 15:00:00 9.5 3 Oeste 6 Oeste 0 -- -- 73
2018-01-08 14:00:00 6.8 2 Noroeste 6 Sur 0 -- -- 84
2018-01-08 13:00:00 4 0 Calma 4 Oeste 0 -- -- 96
2018-01-08 12:00:00 2.5 0 Calma 6 Sur 0 -- -- 99
2018-01-08 11:00:00 1.3 0 Calma 5 Sudeste 0 -- -- 100
2018-01-08 10:00:00 0.6 0 Calma 4 Sur 0 -- -- 99
2018-01-08 09:00:00 0.3 3 Sudeste 7 Sur 0 -- -- 99
2018-01-08 08:00:00 0.7 3 Sur 7 Sur 0 -- -- 99
2018-01-08 07:00:00 1.2 4 Sur 7 Sudeste 0 -- -- 99
2018-01-08 06:00:00 1.4 4 Sudeste 9 Sur 0 -- -- 99
2018-01-08 05:00:00 1.4 5 Sur 8 Sur 0 -- -- 99
2018-01-08 04:00:00 1.5 0 Calma 6 Sur 0 -- -- 99
2018-01-08 03:00:00 1.8 0 Calma 8 Sudeste 0 -- -- 99
2018-01-08 02:00:00 1.8 5 Sudeste 8 Sur 0 -- -- 99
2018-01-08 01:00:00 1.8 0 Calma 5 Sur 0 -- -- 99
2018-01-08 00:00:00 2.2 2 Sudeste 4 Sur 0 -- -- 98
2018-01-07 23:00:00 2.6 3 Sur 6 Sudeste 0 -- -- 98
2018-01-07 22:00:00 3 2 Sudeste 14 Sudeste 0 -- -- 97
2018-01-07 21:00:00 3.7 5 Sudeste 9 Sudeste 0 -- -- 97
2018-01-07 20:00:00 4.3 0 Calma 9 Sudeste 0 -- -- 96
2018-01-07 19:00:00 5.3 2 Sudoeste 7 Sudeste 0 -- -- 95
2018-01-07 18:00:00 6.1 4 Sudeste 12 Sudeste 0 -- -- 95
2018-01-07 17:00:00 6.3 5 Sudeste 12 Sudeste 1 -- -- 93
2018-01-07 16:00:00 6.5 2 Sudeste 6 Sur 0 -- -- 88
2018-01-07 15:00:00 6.3 0 Calma 8 Sur 0 -- -- 85
2018-01-07 14:00:00 5.8 4 Sudeste 8 Sudeste 0 -- -- 89
2018-01-07 13:00:00 5.1 2 Sudoeste 4 Oeste 0 -- -- 89
2018-01-07 12:00:00 4 0 Calma 4 Noroeste 0.4 -- -- 95
2018-01-07 11:00:00 3.1 0 Calma 5 Nordeste 0.8 -- -- 95
2018-01-07 10:00:00 2.7 2 Sur 11 Sur 2 -- -- 95
2018-01-07 09:00:00 3 8 Sudeste 18 Sudeste 1.8 -- -- 93
2018-01-07 08:00:00 3.2 10 Sudeste 19 Sudeste 2.4 -- -- 93
2018-01-07 07:00:00 3.2 11 Sudeste 19 Sur 2.8 -- -- 93
2018-01-07 06:00:00 4.3 6 Nordeste 24 Nordeste 3.2 -- -- 89
2018-01-07 05:00:00 4.5 9 Norte 29 Norte 5.8 -- -- 88
2018-01-07 04:00:00 5.4 9 Norte 28 Noroeste 4.2 -- -- 86
2018-01-07 03:00:00 6 14 Norte 37 Norte 1.6 -- -- 81
2018-01-07 02:00:00 4 13 Sudeste 25 Sudeste 0.2 -- -- 91
2018-01-07 01:00:00 3.5 5 Sudeste 16 Sudeste 1.2 -- -- 93
2018-01-07 00:00:00 3.5 6 Sur 12 Sudeste 1 -- -- 94
2018-01-06 23:00:00 3.2 6 Sudeste 8 Sudeste 1.8 -- -- 96
2018-01-06 22:00:00 3.1 0 Calma 10 Sur 0.2 -- -- 95
2018-01-06 21:00:00 3.1 5 Sudeste 11 Sudeste 0.8 -- -- 94
2018-01-06 20:00:00 3.2 3 Oeste 26 Noroeste 6.6 -- -- 91
2018-01-06 19:00:00 4.7 4 Sudeste 27 Norte 2.4 -- -- 90
2018-01-06 18:00:00 6.1 6 Noroeste 27 Norte 0 -- -- 77
2018-01-06 17:00:00 5.9 4 Sudeste 8 Sudeste 0 -- -- 85
2018-01-06 16:00:00 6.2 3 Sur 8 Sudeste 0 -- -- 78
2018-01-06 15:00:00 6.2 2 Sudoeste 5 Sur 0.2 -- -- 79
2018-01-06 14:00:00 6.1 3 Sur 8 Oeste 0 -- -- 79
2018-01-06 13:00:00 5.9 7 Oeste 11 Oeste 0 -- -- 86
2018-01-06 12:00:00 5.9 4 Sur 6 Sur 0 -- -- 87
2018-01-06 11:00:00 5.3 0 Calma 4 Norte 0 -- -- 96
2018-01-06 10:00:00 4.9 0 Calma 7 Sudeste 0 -- -- 97
2018-01-06 09:00:00 4.7 0 Calma 2 Oeste 0 -- -- 98
2018-01-06 08:00:00 4.8 0 Calma 4 Sur 0 -- -- 97
2018-01-06 07:00:00 5.2 0 Calma 6 Nordeste 0 -- -- 97
2018-01-06 06:00:00 5.3 0 Calma 5 Sudeste 0 -- -- 97
2018-01-06 05:00:00 5.3 0 Calma 5 Sudeste 0 -- -- 97
2018-01-06 04:00:00 5.5 2 Sur 4 Sudoeste 0 -- -- 96
2018-01-06 03:00:00 5.6 0 Calma 5 Noroeste 0 -- -- 96
2018-01-06 02:00:00 5.7 0 Calma 6 Sudeste 0 -- -- 96
2018-01-06 01:00:00 6 0 Calma 6 Sudeste 0.2 -- -- 94
2018-01-06 00:00:00 6.1 2 Sudoeste 6 Sudoeste 0.4 -- -- 94
2018-01-05 23:00:00 6.5 0 Calma 7 Sudeste 1 -- -- 91
2018-01-05 22:00:00 7 2 Oeste 5 Sudoeste 0 -- -- 94
2018-01-05 21:00:00 7.2 2 Sudoeste 9 Sudeste 0 -- -- 92
2018-01-05 20:00:00 7.4 6 Sur 20 Norte 0.4 -- -- 90
2018-01-05 19:00:00 8 6 Noroeste 23 Norte 0.2 -- -- 83
2018-01-05 18:00:00 8.6 10 Noroeste 21 Norte 0.2 -- -- 79
2018-01-05 17:00:00 9.3 9 Norte 30 Norte 1.4 -- -- 77
2018-01-05 16:00:00 10.9 18 Norte 34 Noroeste 0.2 -- -- 72
2018-01-05 15:00:00 12.1 15 Noroeste 30 Norte 0 -- -- 67
2018-01-05 14:00:00 11.4 0 Calma 10 Sudeste 0 -- -- 81
2018-01-05 13:00:00 10.2 5 Sudeste 9 Nordeste 0 -- -- 86
2018-01-05 12:00:00 9.3 6 Nordeste 11 Noroeste 0 -- -- 91
2018-01-05 11:00:00 9.1 2 Noroeste 13 Sudeste 0.8 -- -- 91
2018-01-05 10:00:00 9.4 6 Noroeste 27 Norte 0.6 -- -- 81
2018-01-05 09:00:00 10.3 15 Norte 36 Noroeste 0 -- -- 78
2018-01-05 08:00:00 12.7 14 Norte 26 Nordeste 0 -- -- 74
2018-01-05 07:00:00 12.7 6 Sur 30 Sur 0 -- -- 64
2018-01-05 06:00:00 15.3 18 Sur 37 Sur 0 -- -- 49
2018-01-05 05:00:00 13.1 8 Sur 26 Este 0 -- -- 61
2018-01-05 04:00:00 15.9 17 Sudeste 40 Sudeste 0 -- -- 49
2018-01-05 03:00:00 15.9 24 Sur 49 Sur 0 -- -- 49
2018-01-05 02:00:00 16 20 Sur 36 Sudeste 0 -- -- 47
2018-01-05 01:00:00 15.1 11 Sur 31 Sudeste 0 -- -- 53
2018-01-05 00:00:00 12.3 9 Sur 15 Sudeste 0 -- -- 66
2018-01-04 23:00:00 12.2 8 Sudeste 17 Sudeste 0 -- -- 68
2018-01-04 22:00:00 11.2 6 Sudeste 13 Sudeste 0 -- -- 76
2018-01-04 21:00:00 10.6 3 Sudeste 8 Este 0 -- -- 85
2018-01-04 20:00:00 11 4 Sur 8 Sudeste 0 -- -- 86
2018-01-04 19:00:00 11.4 0 Calma 8 Oeste 0 -- -- 87
2018-01-04 18:00:00 12.9 3 Sur 9 Sudoeste 0 -- -- 82
2018-01-04 17:00:00 14.8 2 Noroeste 10 Noroeste 0 -- -- 76
2018-01-04 16:00:00 15.5 3 Noroeste 14 Noroeste 0 -- -- 71
2018-01-04 15:00:00 15.7 4 Norte 14 Norte 0 -- -- 71
2018-01-04 14:00:00 15 5 Nordeste 10 Este 0 -- -- 76
2018-01-04 13:00:00 12 2 Noroeste 5 Sudeste 0 -- -- 88
2018-01-04 12:00:00 9.4 0 Calma 3 Oeste 0 -- -- 100
2018-01-04 11:00:00 7.2 2 Oeste 6 Este 0 -- -- 100
2018-01-04 10:00:00 5.5 3 Sur 6 Sur 0.2 -- -- 100
2018-01-04 09:00:00 5.4 0 Calma 5 Noroeste 0 -- -- 100
2018-01-04 08:00:00 5.7 2 Sur 5 Este 0 -- -- 100
2018-01-04 07:00:00 6 0 Calma 12 Este 0 -- -- 100
2018-01-04 06:00:00 6.3 4 Norte 8 Sudeste 0 -- -- 100
2018-01-04 05:00:00 6.5 2 Nordeste 6 Sudoeste 0 -- -- 100
2018-01-04 04:00:00 6.4 0 Calma 5 Este 0 -- -- 99
2018-01-04 03:00:00 6.3 2 Nordeste 9 Este 0 -- -- 98
2018-01-04 02:00:00 6.8 2 Sur 6 Sudoeste 0 -- -- 98
2018-01-04 01:00:00 7.5 2 Sudeste 6 Nordeste 0 -- -- 98
2018-01-04 00:00:00 8.5 3 Este 7 Oeste 0 -- -- 98
2018-01-03 23:00:00 9.8 5 Este 10 Este 0 -- -- 96
2018-01-03 22:00:00 10.7 4 Sur 13 Sudeste 0 -- -- 95
2018-01-03 21:00:00 11.7 4 Nordeste 10 Noroeste 0 -- -- 93
2018-01-03 20:00:00 13 5 Sudeste 13 Sudeste 0 -- -- 90
2018-01-03 19:00:00 14 8 Sudeste 13 Sur 0 -- -- 90
2018-01-03 18:00:00 14.7 5 Norte 13 Nordeste 0 -- -- 86
2018-01-03 17:00:00 16.3 2 Nordeste 9 Sudeste 0 -- -- 82
2018-01-03 16:00:00 17.3 9 Nordeste 15 Norte 0 -- -- 75
2018-01-03 15:00:00 18.1 6 Norte 15 Norte 0 -- -- 70
2018-01-03 14:00:00 17.5 3 Sur 8 Sudoeste 0 -- -- 76
2018-01-03 13:00:00 16.5 2 Sudeste 6 Sur 0 -- -- 78
2018-01-03 12:00:00 14.2 4 Sur 7 Sur 0 -- -- 80
2018-01-03 11:00:00 11.3 0 Calma 11 Sudoeste 0 -- -- 91
2018-01-03 10:00:00 9.1 3 Sudoeste 11 Norte 0 -- -- 96
2018-01-03 09:00:00 8.6 4 Sudoeste 12 Noroeste 0 -- -- 97
2018-01-03 08:00:00 8.7 4 Norte 10 Sudeste 0 -- -- 95
2018-01-03 07:00:00 8.9 6 Este 12 Oeste 0 -- -- 98
2018-01-03 06:00:00 8 6 Sudeste 13 Sudeste 0 -- -- 98
2018-01-03 05:00:00 7.8 4 Este 17 Sudeste 0 -- -- 98
2018-01-03 04:00:00 7.6 5 Nordeste 15 Sudeste 0 -- -- 99
2018-01-03 03:00:00 6.8 4 Oeste 17 Sudeste 0 -- -- 99
2018-01-03 02:00:00 6.7 4 Noroeste 14 Oeste 0 -- -- 98
2018-01-03 01:00:00 6.5 2 Oeste 7 Sudoeste 0 -- -- 98
2018-01-03 00:00:00 6.7 4 Noroeste 9 Sudeste 0 -- -- 98
2018-01-02 23:00:00 7.3 4 Sur 8 Sudeste 0 -- -- 98
2018-01-02 22:00:00 8 3 Sur 6 Sudeste 0 -- -- 96
2018-01-02 21:00:00 9.1 4 Sur 7 Oeste 0 -- -- 95
2018-01-02 20:00:00 9.9 3 Sur 8 Sudoeste 0 -- -- 92
2018-01-02 19:00:00 11.1 2 Norte 7 Sur 0 -- -- 90
2018-01-02 18:00:00 13.5 4 Sur 9 Sudeste 0 -- -- 85
2018-01-02 17:00:00 15 5 Sur 10 Sur 0 -- -- 82
2018-01-02 16:00:00 16.1 3 Sudoeste 7 Sudoeste 0 -- -- 76
2018-01-02 15:00:00 15.8 0 Calma 7 Oeste 0 -- -- 82
2018-01-02 14:00:00 13.2 3 Noroeste 9 Nordeste 0 -- -- 88
2018-01-02 13:00:00 12 2 Sudeste 8 Oeste 0 -- -- 91
2018-01-02 12:00:00 10.9 3 Noroeste 10 Este 0 -- -- 94
2018-01-02 11:00:00 9.8 2 Noroeste 8 Sudeste 0 -- -- 97
2018-01-02 10:00:00 9.3 4 Sur 8 Sudeste 0 -- -- 96
2018-01-02 09:00:00 8.7 5 Norte 14 Sudeste 0 -- -- 96
2018-01-02 08:00:00 8.7 6 Norte 17 Sudeste 0 -- -- 97
2018-01-02 07:00:00 8.4 4 Oeste 13 Sudeste 0 -- -- 98
2018-01-02 06:00:00 8 8 Sudoeste 13 Norte 0 -- -- 99
2018-01-02 05:00:00 7.5 5 Sudoeste 10 Sur 0 -- -- 99
2018-01-02 04:00:00 7.2 3 Sur 8 Sudeste 0 -- -- 98
2018-01-02 03:00:00 7.6 4 Sudoeste 5 Oeste 0 -- -- 97
2018-01-02 02:00:00 8.4 0 Calma 8 Este 0 -- -- 97
2018-01-02 01:00:00 8.7 3 Noroeste 8 Norte 0 -- -- 96
2018-01-02 00:00:00 9.5 2 Noroeste 9 Este 0.2 -- -- 96
2018-01-01 23:00:00 10.1 3 Este 13 Sudeste 0.2 -- -- 92
2018-01-01 22:00:00 10.9 9 Sudeste 21 Sudeste 0.2 -- -- 85
2018-01-01 21:00:00 10.8 10 Sur 26 Sur 0.2 -- -- 85
2018-01-01 20:00:00 10.4 7 Sudoeste 17 Sur 0 -- -- 88
2018-01-01 19:00:00 10.5 5 Sudoeste 13 Sudeste 0 -- -- 88
2018-01-01 18:00:00 11.3 8 Este 14 Sudeste 0.6 -- -- 88
2018-01-01 17:00:00 13.3 4 Noroeste 15 Norte 0 -- -- 77
2018-01-01 16:00:00 16.2 9 Sudeste 24 Sur 0 -- -- 51
2018-01-01 15:00:00 17 14 Sur 28 Sur 0 -- -- 43
2018-01-01 14:00:00 17.1 9 Sur 39 Sur 0 -- -- 44
2018-01-01 13:00:00 15.8 19 Sur 41 Sur 0 -- -- 46
2018-01-01 12:00:00 14.7 18 Sur 51 Sur 0 -- -- 49
2018-01-01 11:00:00 13 17 Sudeste 31 Sudeste 0 -- -- 52
2018-01-01 10:00:00 5.3 6 Sur 19 Sudeste 0 -- -- 88
2018-01-01 09:00:00 1.1 4 Noroeste 9 Sudoeste 0 -- -- 99
2018-01-01 08:00:00 -0.2 3 Sudoeste 7 Noroeste 0 -- -- 99
2018-01-01 07:00:00 -0.2 4 Noroeste 9 Sudeste 0 -- -- 98
2018-01-01 06:00:00 -0.3 0 Calma 7 Sudeste 0 -- -- 98
2018-01-01 05:00:00 -0.1 3 Noroeste 7 Sudeste 0 -- -- 97
2018-01-01 04:00:00 0.3 0 Calma 6 Sudoeste 0 -- -- 97
2018-01-01 03:00:00 1.2 4 Este 9 Sudeste 0 -- -- 96
2018-01-01 02:00:00 2.2 4 Sudeste 14 Oeste 0 -- -- 93
2018-01-01 01:00:00 3.5 10 Sur 26 Sudeste 0 -- -- 87
2018-01-01 00:00:00 2.2 7 Este 19 Sudeste 0 -- -- 98
2017-12-31 23:00:00 2.7 7 Sur 11 Este 0 -- -- 96
2017-12-31 22:00:00 3.5 4 Este 14 Sudeste 0 -- -- 95
2017-12-31 21:00:00 4.6 5 Sudeste 17 Sur 0 -- -- 93
2017-12-31 20:00:00 5.3 4 Sudeste 17 Este 0 -- -- 90
2017-12-31 19:00:00 6 5 Noroeste 13 Sur 0 -- -- 91
2017-12-31 18:00:00 8.2 18 Norte 70 Norte 0.8 -- -- 73
2017-12-31 17:00:00 9.5 5 Sur 21 Sudeste 0 -- -- 85
2017-12-31 16:00:00 9.7 8 Sudeste 39 Nordeste 2.8 -- -- 80
2017-12-31 15:00:00 10.7 16 Nordeste 37 Norte 0.4 -- -- 72
2017-12-31 14:00:00 13.5 21 Norte 36 Norte 0 -- -- 62
2017-12-31 13:00:00 16.2 15 Sudeste 54 Sudeste 0 -- -- 48
2017-12-31 12:00:00 15.8 26 Sur 44 Sudeste 0 -- -- 49
2017-12-31 11:00:00 15.6 14 Sur 38 Sur 0 -- -- 49
2017-12-31 10:00:00 15 11 Sur 41 Sudeste 0 -- -- 48
2017-12-31 09:00:00 13.7 12 Sudeste 27 Sudeste 0 -- -- 53
2017-12-31 08:00:00 11.6 9 Sudeste 31 Este 0 -- -- 63
2017-12-31 07:00:00 11.5 8 Sur 28 Sur 0 -- -- 64
2017-12-31 06:00:00 13.2 12 Sur 25 Sudeste 0 -- -- 56
2017-12-31 05:00:00 10.3 12 Sur 28 Sur 0 -- -- 70
2017-12-31 04:00:00 9.9 16 Sur 24 Sur 0 -- -- 72
2017-12-31 03:00:00 9.6 11 Sur 22 Sur 0 -- -- 73
2017-12-31 02:00:00 9.9 12 Sur 21 Sur 0 -- -- 74
2017-12-31 01:00:00 9.6 10 Sur 25 Sudeste 0 -- -- 74